Time;durP1;ratioP1;P1;durP2;ratioP2;P2;SDS_P1;SDS_P2;PMS_P1;PMS_P2;Temp;Humidity;BMP_temperature;BMP_pressure;BME280_temperature;BME280_humidity;BME280_pressure;Samples;Min_cycle;Max_cycle;Signal;HPM_P1;HPM_P2
2022/05/28 00:01:27;;;;;;;11.35;1.20;;;10.00;99.90;;;;;;4894260;29;20049;-56
2022/05/28 00:03:57;;;;;;;7.18;1.23;;;10.00;99.90;;;;;;4877507;29;20048;-56
2022/05/28 00:06:28;;;;;;;7.88;0.88;;;10.00;99.90;;;;;;4864781;29;20056;-56
2022/05/28 00:08:56;;;;;;;11.18;1.70;;;9.90;99.90;;;;;;4887899;29;20045;-56
2022/05/28 00:11:27;;;;;;;7.32;1.42;;;9.90;99.90;;;;;;4893799;29;20068;-56
2022/05/28 00:13:56;;;;;;;12.23;1.80;;;9.90;99.90;;;;;;4895128;29;20048;-56
2022/05/28 00:16:24;;;;;;;9.32;1.55;;;9.80;99.90;;;;;;4894993;29;20049;-56
2022/05/28 00:18:52;;;;;;;7.38;1.23;;;9.90;99.90;;;;;;4878405;29;20057;-56
2022/05/28 00:21:22;;;;;;;6.32;1.20;;;9.90;99.90;;;;;;4895107;29;20060;-56
2022/05/28 00:23:51;;;;;;;8.00;2.00;;;9.90;99.90;;;;;;4893670;29;20616;-56
2022/05/28 00:26:19;;;;;;;8.27;1.00;;;9.80;99.90;;;;;;4892958;29;20057;-56
2022/05/28 00:28:47;;;;;;;10.05;1.05;;;9.80;99.90;;;;;;4893393;29;20045;-56
2022/05/28 00:31:14;;;;;;;11.65;1.70;;;9.80;99.90;;;;;;4893380;29;20210;-56
2022/05/28 00:33:42;;;;;;;8.25;1.05;;;9.90;99.90;;;;;;4877342;29;20401;-57
2022/05/28 00:36:11;;;;;;;9.25;0.98;;;9.80;99.90;;;;;;4893071;29;20063;-56
2022/05/28 00:38:42;;;;;;;8.82;1.40;;;9.80;99.90;;;;;;4893904;29;20048;-58
2022/05/28 00:41:11;;;;;;;13.00;1.13;;;9.80;99.90;;;;;;4894935;29;20048;-55
2022/05/28 00:43:40;;;;;;;6.57;0.80;;;9.80;99.90;;;;;;4894643;29;20064;-55
2022/05/28 00:46:13;;;;;;;9.65;1.63;;;9.80;99.90;;;;;;4893529;29;20053;-56
2022/05/28 00:48:44;;;;;;;7.25;1.00;;;9.70;99.90;;;;;;4890038;29;20053;-57
2022/05/28 00:51:18;;;;;;;14.23;1.35;;;9.70;99.90;;;;;;4895056;29;20394;-56
2022/05/28 00:53:46;;;;;;;9.95;1.00;;;9.70;99.90;;;;;;4894840;29;20052;-56
2022/05/28 00:56:14;;;;;;;7.22;1.13;;;9.70;99.90;;;;;;4895075;29;20053;-55
2022/05/28 00:58:43;;;;;;;8.30;1.00;;;9.70;99.90;;;;;;4894479;29;20052;-56
2022/05/28 01:01:11;;;;;;;11.75;1.80;;;9.60;99.90;;;;;;4894057;29;20044;-55
2022/05/28 01:04:00;;;;;;;9.00;1.10;;;9.60;99.90;;;;;;4890351;29;20063;-55
2022/05/28 01:07:18;;;;;;;6.45;1.38;;;9.60;99.90;;;;;;4892041;29;20045;-55
2022/05/28 01:10:09;;;;;;;13.05;1.35;;;9.50;99.90;;;;;;4888958;29;20056;-55
2022/05/28 01:12:44;;;;;;;6.35;1.02;;;9.60;99.90;;;;;;4894795;29;20055;-56
2022/05/28 01:15:21;;;;;;;5.05;0.88;;;9.50;99.90;;;;;;4895444;29;20059;-56
2022/05/28 01:17:55;;;;;;;5.72;1.48;;;9.50;99.90;;;;;;4894989;29;20048;-57
2022/05/28 01:20:34;;;;;;;11.98;1.10;;;9.50;99.90;;;;;;4898232;29;20404;-56
2022/05/28 01:23:11;;;;;;;12.90;1.60;;;9.50;99.90;;;;;;4896988;29;20044;-56
2022/05/28 01:25:55;;;;;;;5.15;1.10;;;9.40;99.90;;;;;;4896663;29;20072;-55
2022/05/28 01:28:29;;;;;;;7.13;0.90;;;9.40;99.90;;;;;;4898036;29;20397;-55
2022/05/28 01:30:59;;;;;;;10.43;1.45;;;9.40;99.90;;;;;;4894706;29;20045;-56
2022/05/28 01:33:28;;;;;;;6.40;1.23;;;9.40;99.90;;;;;;4890666;29;20505;-56
2022/05/28 01:35:57;;;;;;;7.45;1.27;;;9.40;99.90;;;;;;4899379;29;20057;-55
2022/05/28 01:38:26;;;;;;;7.07;1.08;;;9.40;99.90;;;;;;4897898;29;20056;-56
2022/05/28 01:40:56;;;;;;;8.25;1.55;;;9.40;99.90;;;;;;4899495;29;20048;-57
2022/05/28 01:43:25;;;;;;;7.32;1.73;;;9.40;99.90;;;;;;4899452;29;20044;-55
2022/05/28 01:45:53;;;;;;;13.63;1.38;;;9.40;99.90;;;;;;4898068;29;20060;-56
2022/05/28 01:48:23;;;;;;;11.15;1.73;;;9.40;99.90;;;;;;4898813;29;20048;-56
2022/05/28 01:50:53;;;;;;;11.43;0.90;;;9.40;99.90;;;;;;4899433;29;20049;-56
2022/05/28 01:56:11;;;;;;;15.70;1.30;;;9.40;99.90;;;;;;4899221;29;20049;-55
2022/05/28 01:58:39;;;;;;;7.00;1.17;;;9.40;99.90;;;;;;4897483;29;20053;-55
2022/05/28 02:01:09;;;;;;;11.57;1.50;;;9.30;99.90;;;;;;4897899;29;20620;-54
2022/05/28 02:03:42;;;;;;;11.07;1.77;;;9.30;99.90;;;;;;4899199;29;20056;-54
2022/05/28 02:06:11;;;;;;;16.83;1.73;;;9.30;99.90;;;;;;4898959;29;20053;-55
2022/05/28 02:08:42;;;;;;;11.00;1.80;;;9.30;99.90;;;;;;4899039;29;20412;-55
2022/05/28 02:11:17;;;;;;;14.95;1.77;;;9.30;99.90;;;;;;4898972;29;20053;-56
2022/05/28 02:13:53;;;;;;;8.35;1.65;;;9.30;99.90;;;;;;4897675;29;20052;-56
2022/05/28 02:17:05;;;;;;;11.80;1.45;;;9.20;99.90;;;;;;4898943;29;20045;-56
2022/05/28 02:20:00;;;;;;;13.15;1.42;;;9.20;99.90;;;;;;4897499;29;20067;-56
2022/05/28 02:22:57;;;;;;;8.85;1.60;;;9.20;99.90;;;;;;4898589;29;20056;-56
2022/05/28 02:25:45;;;;;;;12.23;1.60;;;9.10;99.90;;;;;;4898607;29;20053;-56
2022/05/28 02:28:14;;;;;;;7.13;1.30;;;9.10;99.90;;;;;;4897912;29;20049;-56
2022/05/28 02:30:51;;;;;;;5.82;1.13;;;9.10;99.90;;;;;;4897493;29;20048;-56
2022/05/28 02:33:20;;;;;;;9.68;1.15;;;9.10;99.90;;;;;;4898698;29;20060;-56
2022/05/28 02:35:48;;;;;;;11.10;1.33;;;9.00;99.90;;;;;;4897561;29;20433;-56
2022/05/28 02:38:17;;;;;;;14.40;1.10;;;9.00;99.90;;;;;;4898392;29;20048;-56
2022/05/28 02:40:44;;;;;;;9.98;1.23;;;8.90;99.90;;;;;;4898549;29;20059;-56
2022/05/28 02:43:12;;;;;;;11.05;1.00;;;8.90;99.90;;;;;;4898429;29;20048;-55
2022/05/28 02:45:40;;;;;;;9.43;1.33;;;8.90;99.90;;;;;;4898280;29;20055;-56
2022/05/28 02:48:08;;;;;;;13.70;1.50;;;8.80;99.90;;;;;;4898349;29;20052;-55
2022/05/28 02:50:36;;;;;;;7.00;1.17;;;8.80;99.90;;;;;;4898392;29;20055;-56
2022/05/28 02:53:03;;;;;;;11.77;1.30;;;8.70;99.90;;;;;;4897152;29;20064;-56
2022/05/28 02:55:32;;;;;;;6.72;1.13;;;8.70;99.90;;;;;;4898274;29;20396;-56
2022/05/28 02:58:00;;;;;;;9.00;1.67;;;8.70;99.90;;;;;;4898081;29;20048;-56
2022/05/28 03:00:27;;;;;;;8.95;1.67;;;8.70;99.90;;;;;;4898638;29;20061;-56
2022/05/28 03:02:55;;;;;;;10.52;1.85;;;8.70;99.90;;;;;;4898265;29;20045;-56
2022/05/28 03:05:24;;;;;;;11.75;1.52;;;8.70;99.90;;;;;;4896930;29;20056;-56
2022/05/28 03:07:52;;;;;;;6.63;1.35;;;8.70;99.90;;;;;;4898074;29;20044;-56
2022/05/28 03:10:20;;;;;;;8.15;2.15;;;8.70;99.90;;;;;;4897978;29;20060;-55
2022/05/28 03:12:47;;;;;;;8.63;1.35;;;8.80;99.90;;;;;;4896820;29;20057;-55
2022/05/28 03:15:15;;;;;;;7.93;1.58;;;8.80;99.90;;;;;;4897821;29;20055;-55
2022/05/28 03:17:42;;;;;;;9.40;1.85;;;8.80;99.90;;;;;;4897794;29;20053;-54
2022/05/28 03:20:10;;;;;;;9.82;1.05;;;8.90;99.90;;;;;;4897634;29;20402;-55
2022/05/28 03:22:38;;;;;;;10.32;1.63;;;8.70;99.90;;;;;;4897586;29;20048;-55
2022/05/28 03:25:06;;;;;;;10.63;1.48;;;9.00;99.90;;;;;;4897303;29;20059;-55
2022/05/28 03:27:33;;;;;;;11.65;2.15;;;9.10;99.90;;;;;;4897625;29;20052;-55
2022/05/28 03:30:01;;;;;;;13.27;2.22;;;9.10;99.90;;;;;;4897509;29;20040;-55
2022/05/28 03:32:29;;;;;;;6.10;1.52;;;9.20;99.90;;;;;;4897499;29;20059;-54
2022/05/28 03:34:57;;;;;;;9.57;1.83;;;9.20;99.90;;;;;;4897328;29;20052;-55
2022/05/28 03:37:24;;;;;;;6.97;1.70;;;9.20;99.90;;;;;;4897104;29;20044;-55
2022/05/28 03:39:52;;;;;;;11.02;1.10;;;9.20;99.90;;;;;;4897359;29;20405;-55
2022/05/28 03:42:20;;;;;;;14.82;1.75;;;9.10;99.90;;;;;;4897361;29;20048;-55
2022/05/28 03:44:47;;;;;;;10.70;1.98;;;9.00;99.90;;;;;;4897094;29;20059;-55
2022/05/28 03:47:15;;;;;;;5.68;1.50;;;9.00;99.90;;;;;;4897350;29;20477;-56
2022/05/28 03:49:44;;;;;;;9.55;1.00;;;8.90;99.90;;;;;;4896011;29;20067;-55
2022/05/28 03:52:13;;;;;;;9.45;1.40;;;9.00;99.90;;;;;;4897102;29;20064;-56
2022/05/28 03:54:44;;;;;;;8.45;1.33;;;8.90;99.90;;;;;;4895927;29;20056;-56
2022/05/28 03:57:23;;;;;;;12.57;1.48;;;8.90;99.90;;;;;;4880372;29;20045;-56
2022/05/28 03:59:50;;;;;;;8.77;2.25;;;8.90;99.90;;;;;;4897006;29;20060;-56
2022/05/28 04:02:18;;;;;;;14.52;2.42;;;8.80;99.90;;;;;;4895847;29;20780;-56
2022/05/28 04:04:46;;;;;;;8.98;1.45;;;8.80;99.90;;;;;;4896993;29;20051;-56
2022/05/28 04:07:15;;;;;;;12.73;1.33;;;8.70;99.90;;;;;;4896893;29;20055;-56
2022/05/28 04:09:43;;;;;;;12.90;1.38;;;8.60;99.90;;;;;;4895799;29;20052;-56
2022/05/28 04:12:11;;;;;;;7.72;1.23;;;8.50;99.90;;;;;;4896848;29;20045;-56
2022/05/28 04:14:39;;;;;;;7.47;1.33;;;8.50;99.90;;;;;;4896948;29;20428;-56
2022/05/28 04:17:07;;;;;;;10.48;1.70;;;8.40;99.90;;;;;;4896824;29;20051;-55
2022/05/28 04:19:39;;;;;;;7.80;1.15;;;8.40;99.90;;;;;;4896687;29;20055;-56
2022/05/28 04:22:07;;;;;;;16.58;1.80;;;8.30;99.90;;;;;;4895657;29;20056;-56
2022/05/28 04:24:35;;;;;;;11.15;1.58;;;8.30;99.90;;;;;;4895532;29;20405;-56
2022/05/28 04:27:03;;;;;;;9.88;1.75;;;8.20;99.90;;;;;;4896586;29;20049;-56
2022/05/28 04:29:30;;;;;;;9.43;1.38;;;8.20;99.90;;;;;;4896473;29;20067;-56
2022/05/28 04:31:58;;;;;;;4.95;1.40;;;8.10;99.90;;;;;;4895546;29;20052;-56
2022/05/28 04:34:26;;;;;;;9.57;1.90;;;8.10;99.90;;;;;;4896649;29;20051;-56
2022/05/28 04:36:53;;;;;;;15.40;1.67;;;8.10;99.90;;;;;;4896885;29;20063;-55
2022/05/28 04:39:21;;;;;;;8.75;1.70;;;8.00;99.90;;;;;;4896327;29;20060;-56
2022/05/28 04:41:49;;;;;;;7.43;1.38;;;8.10;99.90;;;;;;4896499;29;20049;-55
2022/05/28 04:44:16;;;;;;;13.30;1.75;;;8.00;99.90;;;;;;4895213;29;20048;-56
2022/05/28 04:46:44;;;;;;;6.82;1.35;;;8.00;99.90;;;;;;4896406;29;20060;-55
2022/05/28 04:49:12;;;;;;;9.70;1.30;;;8.00;99.90;;;;;;4888514;29;20045;-56
2022/05/28 04:51:39;;;;;;;14.98;2.03;;;8.00;99.90;;;;;;4895685;29;20052;-56
2022/05/28 04:54:07;;;;;;;14.10;1.40;;;8.00;99.90;;;;;;4897178;29;20056;-56
2022/05/28 04:56:35;;;;;;;11.27;1.40;;;8.00;99.90;;;;;;4897097;29;20417;-56
2022/05/28 04:59:03;;;;;;;10.32;1.73;;;8.00;99.90;;;;;;4896698;29;20579;-55
2022/05/28 05:01:30;;;;;;;11.75;1.50;;;8.00;99.90;;;;;;4895868;29;20072;-55
2022/05/28 05:03:58;;;;;;;15.13;1.73;;;8.00;99.90;;;;;;4876938;29;20045;-55
2022/05/28 05:06:26;;;;;;;5.75;1.23;;;8.30;99.90;;;;;;4876585;29;20619;-55
2022/05/28 05:08:55;;;;;;;10.02;2.10;;;8.10;99.90;;;;;;4891723;29;20053;-55
2022/05/28 05:11:22;;;;;;;6.28;1.40;;;8.10;99.90;;;;;;4896537;29;20075;-55
2022/05/28 05:13:50;;;;;;;16.05;1.85;;;8.10;99.90;;;;;;4898137;29;20049;-55
2022/05/28 05:16:18;;;;;;;7.53;1.67;;;8.10;99.90;;;;;;4897263;29;20056;-55
2022/05/28 05:18:47;;;;;;;8.80;1.58;;;8.20;99.90;;;;;;4887180;29;20052;-55
2022/05/28 05:21:15;;;;;;;12.07;1.60;;;8.30;99.90;;;;;;4893483;29;20060;-55
2022/05/28 05:23:44;;;;;;;7.95;1.73;;;8.30;99.90;;;;;;4893025;29;20517;-56
2022/05/28 05:26:17;;;;;;;9.80;2.08;;;8.40;99.90;;;;;;4897647;29;20048;-55
2022/05/28 05:28:46;;;;;;;11.02;1.42;;;8.40;99.90;;;;;;4897989;29;20045;-56
2022/05/28 05:31:13;;;;;;;14.50;1.90;;;8.40;99.90;;;;;;4896748;29;20425;-55
2022/05/28 05:33:41;;;;;;;20.25;1.90;;;8.40;99.90;;;;;;4887557;29;20055;-56
2022/05/28 05:36:09;;;;;;;10.90;1.77;;;8.40;99.90;;;;;;4878094;29;20497;-55
2022/05/28 05:38:38;;;;;;;18.40;2.20;;;8.40;99.90;;;;;;4890631;29;20044;-56
2022/05/28 05:41:06;;;;;;;16.00;2.33;;;8.40;99.90;;;;;;4897898;29;20393;-55
2022/05/28 05:43:33;;;;;;;16.23;1.58;;;8.50;99.90;;;;;;4897785;29;20052;-55
2022/05/28 05:46:02;;;;;;;17.10;2.50;;;8.50;99.90;;;;;;4898044;29;20052;-55
2022/05/28 05:48:31;;;;;;;12.80;2.57;;;8.60;99.90;;;;;;4890205;29;20158;-55
2022/05/28 05:51:11;;;;;;;14.50;2.05;;;8.60;99.90;;;;;;4876504;29;20060;-55
2022/05/28 05:53:39;;;;;;;9.40;1.90;;;8.70;99.90;;;;;;4889944;29;20048;-56
2022/05/28 05:56:07;;;;;;;11.43;2.10;;;8.70;99.90;;;;;;4895380;29;20063;-56
2022/05/28 05:58:35;;;;;;;12.73;2.25;;;8.80;99.90;;;;;;4896330;29;20048;-55
2022/05/28 06:01:04;;;;;;;11.63;1.55;;;8.80;99.90;;;;;;4897290;29;20488;-55
2022/05/28 06:03:33;;;;;;;12.03;2.23;;;8.90;99.90;;;;;;4892620;29;20056;-55
2022/05/28 06:06:02;;;;;;;14.40;1.63;;;8.90;99.90;;;;;;4878719;29;20053;-56
2022/05/28 06:08:30;;;;;;;14.65;2.28;;;9.00;99.90;;;;;;4890284;29;20051;-55
2022/05/28 06:10:58;;;;;;;8.45;1.85;;;9.00;99.90;;;;;;4897349;29;20052;-55
2022/05/28 06:13:26;;;;;;;8.25;1.00;;;9.10;99.90;;;;;;4897071;29;20059;-56
2022/05/28 06:15:53;;;;;;;15.07;2.55;;;9.20;99.90;;;;;;4895029;29;20052;-55
2022/05/28 06:18:22;;;;;;;8.45;1.20;;;9.20;99.90;;;;;;4889457;29;20060;-56
2022/05/28 06:20:50;;;;;;;9.63;2.45;;;9.30;99.90;;;;;;4874699;29;20056;-56
2022/05/28 06:23:18;;;;;;;10.13;1.52;;;9.40;99.90;;;;;;4889985;29;20174;-56
2022/05/28 06:25:46;;;;;;;9.98;0.98;;;9.40;99.90;;;;;;4896822;29;20056;-56
2022/05/28 06:28:14;;;;;;;8.50;1.10;;;9.50;99.90;;;;;;4895801;29;20059;-56
2022/05/28 06:30:43;;;;;;;18.23;2.15;;;9.60;99.90;;;;;;4896998;29;20528;-56
2022/05/28 06:33:12;;;;;;;8.15;0.88;;;9.70;99.90;;;;;;4894615;29;20048;-56
2022/05/28 06:35:40;;;;;;;6.40;1.02;;;9.80;99.90;;;;;;4896713;29;20063;-56
2022/05/28 06:38:07;;;;;;;6.72;1.52;;;9.80;99.90;;;;;;4896646;29;20049;-57
2022/05/28 06:40:36;;;;;;;6.43;1.70;;;10.10;99.90;;;;;;4896634;29;20134;-56
2022/05/28 06:43:05;;;;;;;3.70;0.85;;;10.00;99.90;;;;;;4895530;29;20045;-56
2022/05/28 06:45:32;;;;;;;6.20;0.90;;;10.10;99.90;;;;;;4895701;29;20051;-56
2022/05/28 06:48:00;;;;;;;4.97;1.02;;;10.30;99.90;;;;;;4895568;29;20044;-56
2022/05/28 06:53:14;;;;;;;11.63;0.95;;;10.50;99.90;;;;;;4893291;29;20049;-56
2022/05/28 06:55:42;;;;;;;5.95;1.50;;;10.60;99.90;;;;;;4892200;29;20068;-56
2022/05/28 06:58:10;;;;;;;11.45;1.60;;;10.70;99.90;;;;;;4894012;29;20045;-56
2022/05/28 07:00:38;;;;;;;9.13;0.98;;;10.80;99.90;;;;;;4895847;29;20044;-56
2022/05/28 07:03:11;;;;;;;5.90;0.93;;;10.80;99.90;;;;;;4891662;29;20037;-57
2022/05/28 07:05:39;;;;;;;6.35;1.00;;;10.80;99.90;;;;;;4874463;29;20064;-56
2022/05/28 07:08:08;;;;;;;8.93;0.93;;;10.90;99.90;;;;;;4884667;29;20409;-56
2022/05/28 07:10:41;;;;;;;9.60;0.93;;;11.00;99.90;;;;;;4894912;29;20056;-56
2022/05/28 07:13:10;;;;;;;5.03;0.95;;;11.00;99.90;;;;;;4895474;29;20061;-55
2022/05/28 07:15:38;;;;;;;4.70;0.80;;;11.10;99.90;;;;;;4896167;29;20045;-56
2022/05/28 07:18:06;;;;;;;7.15;1.13;;;11.20;99.90;;;;;;4896089;29;20056;-56
2022/05/28 07:20:34;;;;;;;3.63;0.55;;;11.30;99.90;;;;;;4878322;29;20061;-56
2022/05/28 07:23:10;;;;;;;7.05;1.02;;;11.30;99.90;;;;;;4886355;29;20044;-56
2022/05/28 07:25:38;;;;;;;3.80;1.02;;;11.50;99.90;;;;;;4894932;29;20068;-57
2022/05/28 07:28:25;;;;;;;5.63;0.85;;;11.50;99.90;;;;;;4895891;29;20397;-57
2022/05/28 07:30:54;;;;;;;1.83;0.50;;;11.60;99.90;;;;;;4894676;29;20060;-56
2022/05/28 07:33:24;;;;;;;8.32;1.02;;;11.60;99.90;;;;;;4894166;29;20053;-56
2022/05/28 07:35:53;;;;;;;;;;;11.70;99.90;;;;;;4894969;29;20080;-56
2022/05/28 07:38:22;;;;;;;2.67;0.80;;;11.70;99.90;;;;;;4895783;29;20390;-56
2022/05/28 07:40:51;;;;;;;5.40;0.65;;;11.80;99.90;;;;;;4894375;29;20079;-57
2022/05/28 07:43:19;;;;;;;6.43;0.60;;;11.80;99.90;;;;;;4895778;29;20056;-55
2022/05/28 07:45:48;;;;;;;5.70;0.80;;;11.80;99.90;;;;;;4895609;29;20544;-56
2022/05/28 07:48:16;;;;;;;5.65;0.70;;;11.90;99.90;;;;;;4895411;29;20044;-56
2022/05/28 07:50:45;;;;;;;2.78;0.40;;;12.00;99.90;;;;;;4890481;29;20402;-55
2022/05/28 07:53:12;;;;;;;6.25;0.98;;;12.00;99.90;;;;;;4887070;29;20062;-55
2022/05/28 07:55:40;;;;;;;3.85;0.60;;;12.10;99.90;;;;;;4895516;29;20053;-56
2022/05/28 07:58:16;;;;;;;2.70;0.40;;;12.20;99.90;;;;;;4895379;29;20052;-56
2022/05/28 08:00:46;;;;;;;3.03;1.10;;;12.30;99.90;;;;;;4895383;29;20048;-57
2022/05/28 08:03:15;;;;;;;2.20;0.70;;;12.40;99.90;;;;;;4895232;29;20048;-56
2022/05/28 08:05:46;;;;;;;3.90;0.40;;;12.40;99.90;;;;;;4877052;29;20056;-56
2022/05/28 08:08:15;;;;;;;6.07;0.80;;;12.50;99.90;;;;;;4884272;29;20053;-56
2022/05/28 08:10:43;;;;;;;3.77;0.80;;;12.60;99.90;;;;;;4895405;29;20053;-55
2022/05/28 08:13:14;;;;;;;7.53;1.10;;;12.80;99.90;;;;;;4895111;29;20052;-56
2022/05/28 08:15:44;;;;;;;3.38;0.95;;;12.90;99.90;;;;;;4895242;29;20060;-56
2022/05/28 08:18:15;;;;;;;7.07;0.68;;;12.90;99.90;;;;;;4895338;29;20059;-56
2022/05/28 08:23:30;;;;;;;1.17;0.40;;;13.00;99.90;;;;;;4887363;29;20059;-56
2022/05/28 08:25:58;;;;;;;2.83;0.68;;;13.10;99.90;;;;;;4894894;29;20055;-55
2022/05/28 08:28:26;;;;;;;4.60;1.70;;;13.10;99.90;;;;;;4894576;29;20056;-56
2022/05/28 08:30:54;;;;;;;3.30;0.60;;;13.20;99.90;;;;;;4893697;29;20060;-57
2022/05/28 08:33:22;;;;;;;2.70;0.40;;;13.30;99.90;;;;;;4893357;29;20049;-56
2022/05/28 08:35:50;;;;;;;3.45;0.98;;;13.40;99.90;;;;;;4878617;29;20413;-56
2022/05/28 08:38:20;;;;;;;3.45;0.43;;;13.50;99.90;;;;;;4885629;29;20044;-56
2022/05/28 08:41:00;;;;;;;1.95;0.45;;;13.60;99.90;;;;;;4894771;29;20052;-56
2022/05/28 08:43:31;;;;;;;1.27;0.47;;;13.80;99.90;;;;;;4894645;29;20052;-56
2022/05/28 08:45:58;;;;;;;1.63;0.60;;;13.90;99.90;;;;;;4894867;29;20048;-56
2022/05/28 08:48:48;;;;;;;5.60;0.70;;;14.00;99.90;;;;;;4894640;29;20056;-56
2022/05/28 08:51:39;;;;;;;0.95;0.32;;;14.10;99.90;;;;;;4875260;29;20505;-56
2022/05/28 08:54:28;;;;;;;4.13;1.05;;;14.10;99.90;;;;;;4892856;29;20062;-54
2022/05/28 08:57:18;;;;;;;2.95;0.50;;;14.00;99.90;;;;;;4893683;29;20045;-56
2022/05/28 08:59:58;;;;;;;1.17;0.50;;;14.00;99.90;;;;;;4894574;29;20048;-57
2022/05/28 09:02:48;;;;;;;6.28;0.65;;;14.10;99.90;;;;;;4893222;29;20053;-56
2022/05/28 09:05:30;;;;;;;;;;;14.20;99.90;;;;;;4884914;29;20060;-57
2022/05/28 09:08:00;;;;;;;4.05;0.52;;;14.20;99.90;;;;;;4882313;29;20504;-57
2022/05/28 09:10:37;;;;;;;2.75;0.68;;;14.40;99.90;;;;;;4894641;29;20067;-57
2022/05/28 09:13:31;;;;;;;3.05;0.73;;;14.40;99.90;;;;;;4894536;29;20056;-57
2022/05/28 09:16:02;;;;;;;2.83;0.40;;;14.60;99.90;;;;;;4894854;29;20048;-56
2022/05/28 09:18:36;;;;;;;4.15;0.32;;;14.80;99.90;;;;;;4894609;29;20433;-57
2022/05/28 09:21:07;;;;;;;5.35;0.88;;;15.00;99.90;;;;;;4878952;29;20057;-57
2022/05/28 09:23:56;;;;;;;0.30;0.22;;;15.20;99.90;;;;;;4887282;29;20410;-57
2022/05/28 09:26:54;;;;;;;3.30;0.45;;;15.40;99.90;;;;;;4893374;29;20754;-57
2022/05/28 09:29:49;;;;;;;2.03;0.38;;;15.60;99.90;;;;;;4842487;29;20076;-56
2022/05/28 09:32:30;;;;;;;4.60;1.20;;;15.80;99.90;;;;;;4878293;29;20051;-57
2022/05/28 09:35:20;;;;;;;3.13;0.30;;;16.00;99.90;;;;;;4888311;29;20127;-57
2022/05/28 09:38:08;;;;;;;1.73;0.40;;;16.10;99.90;;;;;;4884592;29;20048;-57
2022/05/28 09:40:53;;;;;;;4.20;0.70;;;16.10;99.90;;;;;;4898391;29;20044;-57
2022/05/28 09:43:46;;;;;;;2.28;0.30;;;16.00;99.90;;;;;;4896403;29;20061;-57
2022/05/28 09:46:40;;;;;;;2.63;0.43;;;16.00;99.90;;;;;;4896791;29;20048;-57
2022/05/28 09:49:20;;;;;;;2.78;0.50;;;15.90;99.90;;;;;;4894508;29;20052;-57
2022/05/28 09:51:56;;;;;;;;;;;16.00;99.90;;;;;;4878150;29;20059;-57
2022/05/28 09:54:30;;;;;;;4.38;0.40;;;16.10;99.90;;;;;;4893490;29;20407;-58
2022/05/28 09:57:03;;;;;;;1.33;0.40;;;16.20;99.90;;;;;;4877633;29;20045;-58
2022/05/28 09:59:46;;;;;;;5.07;0.90;;;16.20;99.70;;;;;;4878632;29;20053;-57
2022/05/28 10:02:26;;;;;;;11.52;1.13;;;16.30;99.80;;;;;;4880721;29;20053;-57
2022/05/28 10:05:11;;;;;;;2.60;0.63;;;16.20;99.40;;;;;;4892267;29;20083;-57
2022/05/28 10:07:42;;;;;;;2.17;0.52;;;16.20;99.40;;;;;;4882831;29;20047;-56
2022/05/28 10:10:23;;;;;;;1.90;0.50;;;16.20;99.60;;;;;;4896248;29;20048;-57
2022/05/28 10:12:51;;;;;;;3.38;0.50;;;16.30;99.40;;;;;;4896060;29;20408;-58
2022/05/28 10:15:24;;;;;;;4.25;0.50;;;16.40;98.60;;;;;;4897194;29;20119;-58
2022/05/28 10:17:55;;;;;;;2.90;0.40;;;16.50;98.60;;;;;;4897201;29;20497;-57
2022/05/28 10:20:23;;;;;;;0.93;0.38;;;16.60;98.20;;;;;;4890506;29;20055;-57
2022/05/28 10:22:54;;;;;;;3.63;0.55;;;16.60;97.60;;;;;;4885061;29;20057;-56
2022/05/28 10:25:28;;;;;;;3.05;0.40;;;16.60;97.10;;;;;;4896904;29;20052;-56
2022/05/28 10:27:56;;;;;;;3.83;0.52;;;16.80;97.30;;;;;;4896990;29;20044;-57
2022/05/28 10:30:38;;;;;;;0.98;0.40;;;16.90;97.40;;;;;;4880335;29;20060;-57
2022/05/28 10:33:15;;;;;;;4.50;0.40;;;16.90;96.80;;;;;;4896786;29;20052;-57
2022/05/28 10:35:43;;;;;;;3.03;0.47;;;17.00;96.60;;;;;;4888703;29;20045;-57
2022/05/28 10:38:11;;;;;;;1.17;0.40;;;17.00;96.60;;;;;;4886058;29;20052;-57
2022/05/28 10:41:00;;;;;;;1.63;0.50;;;17.10;95.80;;;;;;4896911;29;20056;-57
2022/05/28 10:43:31;;;;;;;3.80;0.73;;;17.10;95.90;;;;;;4894605;29;20048;-58
2022/05/28 10:46:15;;;;;;;0.90;0.40;;;17.00;96.00;;;;;;4893927;29;20053;-57
2022/05/28 10:49:17;;;;;;;2.88;0.50;;;17.10;95.70;;;;;;4892017;29;20040;-57
2022/05/28 10:52:04;;;;;;;5.40;0.82;;;17.40;96.50;;;;;;4892556;29;20068;-58
2022/05/28 10:54:51;;;;;;;3.13;0.85;;;17.90;95.90;;;;;;4893717;29;20045;-57
2022/05/28 10:57:35;;;;;;;2.40;0.50;;;18.10;94.50;;;;;;4876257;29;20060;-58
2022/05/28 11:00:19;;;;;;;1.98;0.52;;;18.10;93.50;;;;;;4893246;29;20469;-57
2022/05/28 11:03:03;;;;;;;1.15;0.30;;;18.00;92.60;;;;;;4893144;29;20059;-57
2022/05/28 11:05:31;;;;;;;3.03;0.32;;;17.70;92.70;;;;;;4888528;29;20049;-58
2022/05/28 11:08:13;;;;;;;2.08;0.40;;;17.70;93.10;;;;;;4880619;29;20053;-58
2022/05/28 11:11:03;;;;;;;2.53;0.52;;;17.80;92.40;;;;;;4892053;29;20048;-57
2022/05/28 11:13:38;;;;;;;4.95;0.50;;;17.80;91.60;;;;;;4876350;29;20064;-57
2022/05/28 11:16:40;;;;;;;4.18;0.43;;;17.80;91.60;;;;;;4891722;29;20063;-57
2022/05/28 11:19:20;;;;;;;3.30;0.60;;;17.70;92.20;;;;;;4892957;29;20056;-57
2022/05/28 11:22:16;;;;;;;4.93;0.60;;;17.70;92.10;;;;;;4891853;29;20049;-58
2022/05/28 11:24:58;;;;;;;1.15;0.40;;;17.60;92.10;;;;;;4891894;29;20055;-57
2022/05/28 11:27:51;;;;;;;1.88;0.40;;;17.60;92.30;;;;;;4892964;29;20048;-58
2022/05/28 11:30:30;;;;;;;2.38;0.50;;;17.70;91.90;;;;;;4892564;29;20511;-58
2022/05/28 11:33:38;;;;;;;3.38;0.35;;;17.80;92.50;;;;;;4892674;29;20052;-58
2022/05/28 11:36:19;;;;;;;2.45;0.40;;;18.10;91.90;;;;;;4834003;29;20062;-58
2022/05/28 11:38:58;;;;;;;2.50;0.60;;;18.30;91.00;;;;;;4883767;29;20094;-57
2022/05/28 11:41:46;;;;;;;1.80;0.57;;;18.60;90.60;;;;;;4892734;29;20053;-57
2022/05/28 11:44:19;;;;;;;2.35;0.50;;;18.90;89.20;;;;;;4892429;29;20045;-57
2022/05/28 11:46:52;;;;;;;3.08;0.38;;;19.10;85.40;;;;;;4892646;29;20045;-58
2022/05/28 11:52:48;;;;;;;1.80;0.60;;;19.10;85.70;;;;;;4878194;29;20052;-58
2022/05/28 11:55:21;;;;;;;1.75;0.40;;;19.30;86.10;;;;;;4891041;29;20056;-57
2022/05/28 11:58:01;;;;;;;3.30;0.60;;;19.50;83.80;;;;;;4892234;29;20049;-58
2022/05/28 12:00:39;;;;;;;0.80;0.30;;;19.50;80.70;;;;;;4891210;29;20075;-58
2022/05/28 12:03:19;;;;;;;2.15;0.45;;;19.30;80.60;;;;;;4891834;29;20056;-57
2022/05/28 12:06:02;;;;;;;1.75;0.50;;;19.00;80.70;;;;;;4891273;29;20527;-57
2022/05/28 12:08:42;;;;;;;1.10;0.43;;;18.80;81.90;;;;;;4890515;29;20061;-58
2022/05/28 12:11:35;;;;;;;2.00;0.40;;;18.60;82.10;;;;;;4873689;29;20049;-58
2022/05/28 12:14:21;;;;;;;1.42;0.45;;;18.40;82.50;;;;;;4888638;29;20055;-57
2022/05/28 12:17:03;;;;;;;0.90;0.38;;;18.60;85.70;;;;;;4874308;29;20059;-58
2022/05/28 12:19:32;;;;;;;5.85;0.57;;;19.00;83.60;;;;;;4891478;29;20741;-58
2022/05/28 12:22:28;;;;;;;4.50;0.73;;;19.00;81.20;;;;;;4879961;29;20405;-57
2022/05/28 12:25:07;;;;;;;1.55;0.45;;;19.30;83.50;;;;;;4852976;29;20513;-58
2022/05/28 12:27:49;;;;;;;3.58;0.40;;;20.00;84.90;;;;;;4861012;29;20052;-58
2022/05/28 12:30:33;;;;;;;2.38;0.75;;;20.80;80.90;;;;;;4892977;29;20056;-58
2022/05/28 12:33:01;;;;;;;1.00;0.50;;;21.40;75.30;;;;;;4894896;29;20504;-57
2022/05/28 12:35:31;;;;;;;3.63;0.50;;;21.40;73.10;;;;;;4894886;29;20049;-58
2022/05/28 12:38:05;;;;;;;2.65;0.95;;;21.50;74.30;;;;;;4894019;29;20048;-58
2022/05/28 12:40:50;;;;;;;3.50;0.80;;;21.80;75.40;;;;;;4894937;29;20045;-58
2022/05/28 12:43:22;;;;;;;4.45;0.50;;;22.20;74.30;;;;;;4894734;29;20060;-58
2022/05/28 12:45:51;;;;;;;2.67;0.52;;;22.80;76.40;;;;;;4893773;29;20053;-58
2022/05/28 12:48:32;;;;;;;2.83;0.50;;;23.40;73.70;;;;;;4894582;29;20516;-58
2022/05/28 12:51:20;;;;;;;3.05;0.70;;;23.80;70.80;;;;;;4893844;29;20056;-58
2022/05/28 12:53:54;;;;;;;2.13;0.73;;;24.10;68.40;;;;;;4894694;29;20048;-59
2022/05/28 12:56:28;;;;;;;4.18;0.73;;;24.30;66.00;;;;;;4895017;29;20045;-59
2022/05/28 12:59:13;;;;;;;4.60;0.60;;;24.30;64.60;;;;;;4891912;29;20501;-58
2022/05/28 13:01:59;;;;;;;2.15;0.88;;;24.10;63.00;;;;;;4891670;29;20059;-57
2022/05/28 13:04:39;;;;;;;1.35;0.57;;;24.00;61.20;;;;;;4891125;29;20056;-58
2022/05/28 13:07:37;;;;;;;4.35;0.80;;;23.50;61.10;;;;;;4881314;29;20057;-60
2022/05/28 13:10:15;;;;;;;2.90;0.70;;;22.90;62.00;;;;;;4866346;29;20053;-57
2022/05/28 13:13:02;;;;;;;3.47;0.77;;;22.50;63.90;;;;;;4880009;29;20045;-57
2022/05/28 13:15:54;;;;;;;1.70;0.70;;;22.40;64.40;;;;;;4895534;29;20049;-57
2022/05/28 13:18:43;;;;;;;4.93;0.50;;;22.70;66.60;;;;;;4895228;29;20053;-58
2022/05/28 13:21:35;;;;;;;4.25;0.65;;;23.10;65.40;;;;;;4892720;29;20849;-57
2022/05/28 13:24:37;;;;;;;1.23;0.50;;;23.30;63.20;;;;;;4891530;29;20048;-57
2022/05/28 13:27:17;;;;;;;2.67;0.52;;;23.20;64.60;;;;;;4895045;29;20409;-57
2022/05/28 13:29:51;;;;;;;1.83;0.60;;;23.10;64.00;;;;;;4894983;29;20075;-57
2022/05/28 13:32:29;;;;;;;1.73;0.50;;;22.50;63.00;;;;;;4894832;29;20064;-57
2022/05/28 13:35:04;;;;;;;2.17;0.50;;;21.90;62.60;;;;;;4894838;29;20052;-56
2022/05/28 13:37:31;;;;;;;2.92;0.82;;;21.40;63.90;;;;;;4891975;29;20068;-57